createdAt,value
2023-01-29T00:00:37.045Z,14.03
2023-01-29T00:03:45.683Z,14.23
2023-01-29T00:07:00.731Z,12.90
2023-01-29T00:10:09.719Z,14.63
2023-01-29T00:13:18.580Z,14.80
2023-01-29T00:16:26.720Z,13.93
2023-01-29T00:19:36.115Z,13.68
2023-01-29T00:22:44.775Z,14.27
2023-01-29T00:25:53.335Z,14.38
2023-01-29T00:29:02.731Z,14.57
2023-01-29T00:32:17.799Z,15.23
2023-01-29T00:35:19.725Z,15.00
2023-01-29T00:38:34.707Z,14.80
2023-01-29T00:41:43.425Z,15.30
2023-01-29T00:44:51.736Z,15.00
2023-01-29T00:48:00.473Z,15.97
2023-01-29T00:51:17.736Z,14.85
2023-01-29T00:54:26.503Z,15.60
2023-01-29T00:57:37.776Z,16.40
2023-01-29T01:00:46.640Z,15.43
2023-01-29T01:03:55.703Z,15.10
2023-01-29T01:10:18.354Z,15.18
2023-01-29T01:13:32.746Z,14.60
2023-01-29T01:16:34.600Z,14.70
2023-01-29T01:19:49.717Z,15.97
2023-01-29T01:23:00.758Z,15.18
2023-01-29T01:26:10.101Z,14.73
2023-01-29T01:29:18.712Z,15.25
2023-01-29T01:32:28.364Z,15.07
2023-01-29T01:35:36.753Z,14.50
2023-01-29T01:38:45.370Z,16.20
2023-01-29T01:41:53.807Z,14.87
2023-01-29T01:45:12.733Z,15.20
2023-01-29T01:48:26.668Z,14.70
2023-01-29T01:51:53.712Z,13.30
2023-01-29T01:54:55.686Z,15.57
2023-01-29T01:58:18.768Z,14.52
2023-01-29T02:01:33.721Z,14.43
2023-01-29T02:04:35.592Z,15.43
2023-01-29T02:07:53.788Z,15.33
2023-01-29T02:11:02.714Z,14.87
2023-01-29T02:14:18.744Z,14.55
2023-01-29T02:17:26.779Z,14.10
2023-01-29T02:20:44.730Z,13.67
2023-01-29T02:24:36.792Z,13.93
2023-01-29T02:28:02.792Z,15.85
2023-01-29T02:31:25.798Z,13.85
2023-01-29T02:34:58.797Z,14.52
2023-01-29T02:38:30.735Z,14.50
2023-01-29T02:41:43.793Z,14.70
2023-01-29T02:45:05.745Z,14.48
2023-01-29T02:48:15.785Z,13.15
2023-01-29T02:51:50.767Z,14.48
2023-01-29T02:55:15.783Z,14.33
2023-01-29T02:58:29.115Z,13.30
2023-01-29T03:01:51.790Z,13.48
2023-01-29T03:04:59.992Z,14.25
2023-01-29T03:08:18.796Z,13.18
2023-01-29T03:11:21.194Z,13.77
2023-01-29T03:14:44.896Z,13.40
2023-01-29T03:17:56.843Z,14.10
2023-01-29T03:21:17.766Z,12.93
2023-01-29T03:24:36.747Z,13.38
2023-01-29T03:27:53.737Z,13.57
2023-01-29T03:31:03.811Z,12.43
2023-01-29T03:34:17.302Z,13.07
2023-01-29T03:37:33.763Z,13.60
2023-01-29T03:40:59.769Z,13.60
2023-01-29T03:44:14.637Z,14.03
2023-01-29T03:47:43.882Z,12.70
2023-01-29T03:51:01.831Z,13.73
2023-01-29T03:54:29.778Z,12.82
2023-01-29T03:57:37.708Z,12.27
2023-01-29T04:01:02.827Z,13.33
2023-01-29T04:04:15.042Z,12.30
2023-01-29T04:07:31.803Z,12.20
2023-01-29T04:10:44.789Z,13.30
2023-01-29T04:13:53.939Z,12.98
2023-01-29T04:17:06.771Z,11.73
2023-01-29T04:20:16.401Z,11.70
2023-01-29T04:23:33.763Z,10.68
2023-01-29T04:27:04.817Z,11.85
2023-01-29T04:30:32.896Z,10.30
2023-01-29T04:34:10.859Z,10.40
2023-01-29T04:37:21.028Z,10.80
2023-01-29T04:40:50.057Z,10.38
2023-01-29T04:44:08.115Z,11.73
2023-01-29T04:47:37.891Z,9.63
2023-01-29T04:51:10.703Z,9.40
2023-01-29T04:54:29.779Z,9.60
2023-01-29T04:58:11.855Z,9.85
2023-01-29T05:01:24.774Z,9.35
2023-01-29T05:04:35.680Z,9.18
2023-01-29T05:07:45.813Z,8.27
2023-01-29T05:10:57.396Z,8.90
2023-01-29T05:14:09.831Z,10.43
2023-01-29T05:17:26.813Z,9.23
2023-01-29T05:20:34.065Z,10.05
2023-01-29T05:23:48.850Z,9.20
2023-01-29T05:26:53.654Z,8.83
2023-01-29T05:30:08.780Z,9.23
2023-01-29T05:33:31.813Z,9.20
2023-01-29T05:36:33.589Z,8.73
2023-01-29T05:39:48.803Z,9.43
2023-01-29T05:42:50.878Z,7.50
2023-01-29T05:46:06.842Z,7.95
2023-01-29T05:49:08.934Z,9.15
2023-01-29T05:52:30.815Z,9.35
2023-01-29T05:55:38.880Z,9.33
2023-01-29T05:58:47.584Z,9.47
2023-01-29T06:01:55.846Z,9.70
2023-01-29T06:05:10.824Z,9.93
2023-01-29T06:08:18.841Z,9.23
2023-01-29T06:11:33.851Z,9.73
2023-01-29T06:14:35.759Z,9.17
2023-01-29T06:17:50.826Z,9.10
2023-01-29T06:20:53.212Z,9.68
2023-01-29T06:24:08.820Z,10.75
2023-01-29T06:27:10.732Z,9.00
2023-01-29T06:30:26.828Z,9.20
2023-01-29T06:33:35.833Z,9.15
2023-01-29T06:36:44.436Z,8.43
2023-01-29T06:39:53.008Z,8.32
2023-01-29T06:43:01.480Z,9.30
2023-01-29T06:46:13.805Z,9.13
2023-01-29T06:49:22.572Z,8.63
2023-01-29T06:52:43.848Z,8.88
2023-01-29T06:55:51.752Z,8.65
2023-01-29T06:59:06.927Z,9.57
2023-01-29T07:02:15.903Z,9.43
2023-01-29T07:05:30.859Z,8.73
2023-01-29T07:08:39.951Z,9.95
2023-01-29T07:11:55.845Z,9.48
2023-01-29T07:14:57.867Z,9.73
2023-01-29T07:18:12.828Z,8.93
2023-01-29T07:21:21.890Z,7.82
2023-01-29T07:24:36.843Z,7.93
2023-01-29T07:27:44.901Z,8.18
2023-01-29T07:31:04.930Z,8.93
2023-01-29T07:34:13.836Z,8.10
2023-01-29T07:37:22.564Z,8.05
2023-01-29T07:40:31.878Z,8.30
2023-01-29T07:43:40.518Z,8.73
2023-01-29T07:46:49.854Z,7.50
2023-01-29T07:50:12.859Z,9.00
2023-01-29T07:53:27.830Z,7.43
2023-01-29T07:56:36.492Z,7.50
2023-01-29T07:59:44.853Z,7.82
2023-01-29T08:03:00.964Z,7.07
2023-01-29T08:06:04.407Z,7.50
2023-01-29T08:09:22.051Z,7.68
2023-01-29T08:12:30.841Z,7.70
2023-01-29T08:15:43.503Z,6.75
2023-01-29T08:18:51.883Z,7.13
2023-01-29T08:22:00.800Z,6.17
2023-01-29T08:25:08.936Z,7.50
2023-01-29T08:28:23.870Z,7.43
2023-01-29T08:31:53.726Z,7.00
2023-01-29T08:35:08.891Z,7.43
2023-01-29T08:38:10.760Z,7.50
2023-01-29T08:41:25.871Z,7.32
2023-01-29T08:44:27.809Z,7.20
2023-01-29T08:47:42.845Z,7.15
2023-01-29T08:50:51.907Z,6.20
2023-01-29T08:54:00.887Z,7.20
2023-01-29T08:57:08.860Z,6.65
2023-01-29T09:00:19.155Z,6.00
2023-01-29T09:03:27.928Z,7.43
2023-01-29T09:06:42.925Z,6.90
2023-01-29T09:09:44.800Z,7.23
2023-01-29T09:12:59.885Z,6.75
2023-01-29T09:16:03.175Z,6.93
2023-01-29T09:19:17.997Z,6.72
2023-01-29T09:22:26.888Z,6.83
2023-01-29T09:25:42.891Z,6.53
2023-01-29T09:28:50.923Z,5.78
2023-01-29T09:32:05.879Z,6.22
2023-01-29T09:35:16.180Z,6.85
2023-01-29T09:38:24.592Z,6.37
2023-01-29T09:41:58.899Z,5.77
2023-01-29T09:45:20.908Z,7.15
2023-01-29T09:48:33.458Z,6.00
2023-01-29T09:51:53.917Z,5.90
2023-01-29T09:55:20.411Z,5.83
2023-01-29T09:58:38.901Z,5.77
2023-01-29T10:02:08.003Z,6.32
2023-01-29T10:05:33.131Z,5.53
2023-01-29T10:09:08.947Z,6.15
2023-01-29T10:12:40.756Z,6.07
2023-01-29T10:16:14.904Z,7.17
2023-01-29T10:19:55.915Z,5.75
2023-01-29T10:23:27.932Z,5.22
2023-01-29T10:26:42.999Z,5.43
2023-01-29T10:29:46.905Z,5.57
2023-01-29T10:33:05.906Z,4.97
2023-01-29T10:36:21.201Z,5.30
2023-01-29T10:39:32.976Z,5.18
2023-01-29T10:42:50.009Z,5.62
2023-01-29T10:46:17.924Z,5.73
2023-01-29T10:49:55.895Z,5.80
2023-01-29T10:53:33.917Z,11.50
2023-01-29T10:56:59.924Z,5.32
2023-01-29T11:00:13.734Z,4.95
2023-01-29T11:03:29.433Z,5.10
2023-01-29T11:06:43.908Z,5.67
2023-01-29T11:10:09.026Z,6.60
2023-01-29T11:13:18.514Z,5.55
2023-01-29T11:16:26.943Z,4.93
2023-01-29T11:19:47.937Z,4.80
2023-01-29T11:22:54.144Z,5.73
2023-01-29T11:26:09.938Z,4.68
2023-01-29T11:29:32.119Z,5.03
2023-01-29T11:32:47.909Z,4.97
2023-01-29T11:35:56.923Z,5.37
2023-01-29T11:39:23.952Z,6.23
2023-01-29T11:42:31.480Z,5.68
2023-01-29T11:45:46.955Z,5.82
2023-01-29T11:49:05.852Z,6.18
2023-01-29T11:52:40.424Z,6.70
2023-01-29T11:55:53.936Z,5.30
2023-01-29T11:59:03.039Z,5.55
2023-01-29T12:02:31.942Z,6.05
2023-01-29T12:05:48.917Z,5.43
2023-01-29T12:09:01.704Z,5.77
2023-01-29T12:12:34.040Z,5.20
2023-01-29T12:15:49.984Z,5.87
2023-01-29T12:19:04.901Z,6.28
2023-01-29T12:22:26.648Z,5.50
2023-01-29T12:25:50.945Z,5.67
2023-01-29T12:29:31.942Z,4.77
2023-01-29T12:32:49.616Z,5.57
2023-01-29T12:36:33.988Z,6.30
2023-01-29T12:39:42.864Z,5.97
2023-01-29T12:43:05.041Z,4.67
2023-01-29T12:46:28.003Z,5.50
2023-01-29T12:49:39.659Z,5.82
2023-01-29T12:53:01.989Z,5.80
2023-01-29T12:56:29.121Z,4.22
2023-01-29T12:59:45.965Z,4.87
2023-01-29T13:03:00.755Z,5.03
2023-01-29T13:06:21.967Z,4.87
2023-01-29T13:09:34.667Z,5.43
2023-01-29T13:12:45.971Z,4.57
2023-01-29T13:16:03.003Z,4.67
2023-01-29T13:19:24.436Z,4.57
2023-01-29T13:22:44.948Z,4.53
2023-01-29T13:25:50.690Z,4.18
2023-01-29T13:29:04.988Z,4.55
2023-01-29T13:32:09.377Z,6.93
2023-01-29T13:35:27.000Z,4.67
2023-01-29T13:38:39.008Z,5.55
2023-01-29T13:41:49.969Z,5.12
2023-01-29T13:45:03.058Z,5.82
2023-01-29T13:48:31.004Z,5.07
2023-01-29T13:51:39.522Z,4.60
2023-01-29T13:54:59.953Z,4.87
2023-01-29T13:58:17.080Z,4.72
2023-01-29T14:01:52.004Z,4.97
2023-01-29T14:05:13.999Z,5.30
2023-01-29T14:08:45.955Z,5.23
2023-01-29T14:11:48.537Z,5.50
2023-01-29T14:15:21.761Z,6.07
2023-01-29T14:18:33.415Z,5.32
2023-01-29T14:21:43.988Z,5.43
2023-01-29T14:25:05.040Z,5.63
2023-01-29T14:28:29.978Z,5.62
2023-01-29T14:31:51.041Z,5.75
2023-01-29T14:35:04.994Z,6.40
2023-01-29T14:38:21.995Z,5.53
2023-01-29T14:41:31.772Z,6.30
2023-01-29T14:45:06.006Z,5.20
2023-01-29T14:48:37.413Z,6.05
2023-01-29T14:51:52.048Z,5.22
2023-01-29T14:55:22.008Z,5.30
2023-01-29T14:58:40.045Z,5.67
2023-01-29T15:02:02.075Z,5.47
2023-01-29T15:05:18.023Z,6.15
2023-01-29T15:08:41.980Z,5.55
2023-01-29T15:12:05.983Z,5.60
2023-01-29T15:15:28.123Z,6.47
2023-01-29T15:18:44.070Z,5.85
2023-01-29T15:22:18.962Z,6.20
2023-01-29T15:25:34.647Z,5.97
2023-01-29T15:28:47.230Z,6.57
2023-01-29T15:32:07.992Z,6.07
2023-01-29T15:35:35.016Z,6.65
2023-01-29T15:38:37.120Z,6.32
2023-01-29T15:41:53.012Z,5.95
2023-01-29T15:44:55.492Z,6.73
2023-01-29T15:48:19.036Z,7.57
2023-01-29T15:51:25.036Z,7.78
2023-01-29T15:54:46.991Z,7.40
2023-01-29T15:58:02.070Z,6.60
2023-01-29T16:01:04.211Z,7.13
2023-01-29T16:04:27.020Z,8.23
2023-01-29T16:07:30.143Z,6.50
2023-01-29T16:10:48.021Z,6.50
2023-01-29T16:13:57.550Z,7.18
2023-01-29T16:17:29.047Z,8.77
2023-01-29T16:20:52.086Z,7.97
2023-01-29T16:24:06.270Z,7.15
2023-01-29T16:27:20.056Z,7.28
2023-01-29T16:30:29.201Z,7.87
2023-01-29T16:33:43.049Z,8.87
2023-01-29T16:37:00.032Z,8.10
2023-01-29T16:40:22.056Z,7.53
2023-01-29T16:43:54.046Z,7.80
2023-01-29T16:47:11.775Z,7.50
2023-01-29T16:50:54.204Z,7.90
2023-01-29T16:54:21.108Z,7.43
2023-01-29T16:57:33.307Z,8.07
2023-01-29T17:00:54.103Z,9.45
2023-01-29T17:04:04.499Z,9.40
2023-01-29T17:07:24.041Z,9.37
2023-01-29T17:10:41.055Z,8.27
2023-01-29T17:13:52.064Z,7.40
2023-01-29T17:17:11.049Z,9.20
2023-01-29T17:20:16.195Z,8.70
2023-01-29T17:23:32.041Z,8.73
2023-01-29T17:26:44.267Z,9.70
2023-01-29T17:30:01.016Z,9.07
2023-01-29T17:33:15.725Z,7.25
2023-01-29T17:36:30.096Z,8.18
2023-01-29T17:39:39.062Z,8.60
2023-01-29T17:42:47.960Z,7.93
2023-01-29T17:45:56.091Z,8.43
2023-01-29T17:49:19.261Z,8.23
2023-01-29T17:52:28.076Z,9.27
2023-01-29T17:55:43.093Z,8.90
2023-01-29T17:58:45.275Z,8.87
2023-01-29T18:02:01.137Z,8.43
2023-01-29T18:05:03.256Z,8.98
2023-01-29T18:08:32.040Z,9.35
2023-01-29T18:11:49.066Z,8.80
2023-01-29T18:14:57.944Z,8.40
2023-01-29T18:18:07.101Z,9.48
2023-01-29T18:21:16.140Z,9.00
2023-01-29T18:24:25.049Z,9.05
2023-01-29T18:27:34.776Z,8.83
2023-01-29T18:30:43.130Z,9.20
2023-01-29T18:33:59.080Z,8.32
2023-01-29T18:37:01.146Z,8.40
2023-01-29T18:40:18.090Z,9.15
2023-01-29T18:43:20.154Z,7.73
2023-01-29T18:46:35.101Z,10.10
2023-01-29T18:49:37.156Z,9.15
2023-01-29T18:52:52.063Z,8.75
2023-01-29T18:56:02.400Z,8.25
2023-01-29T18:59:18.097Z,9.73
2023-01-29T19:02:27.185Z,8.07
2023-01-29T19:05:36.056Z,8.48
2023-01-29T19:08:51.049Z,8.55
2023-01-29T19:12:00.122Z,8.45
2023-01-29T19:15:10.672Z,8.23
2023-01-29T19:18:26.079Z,8.50
2023-01-29T19:21:35.220Z,9.77
2023-01-29T19:24:44.072Z,9.05
2023-01-29T19:27:53.087Z,8.02
2023-01-29T19:31:09.143Z,8.23
2023-01-29T19:34:18.124Z,7.97
2023-01-29T19:37:28.044Z,8.55
2023-01-29T19:40:43.109Z,9.63
2023-01-29T19:43:45.153Z,9.10
2023-01-29T19:47:01.092Z,8.50
2023-01-29T19:50:11.120Z,8.57
2023-01-29T19:53:28.730Z,7.72
2023-01-29T19:56:38.106Z,8.27
2023-01-29T19:59:46.817Z,8.30
2023-01-29T20:02:55.126Z,8.90
2023-01-29T20:06:06.017Z,8.57
2023-01-29T20:09:21.148Z,10.43
2023-01-29T20:12:30.095Z,8.60
2023-01-29T20:15:42.868Z,9.77
2023-01-29T20:19:14.377Z,9.47
2023-01-29T20:22:17.173Z,8.27
2023-01-29T20:25:32.125Z,9.20
2023-01-29T20:28:48.124Z,8.65
2023-01-29T20:31:57.325Z,8.52
2023-01-29T20:35:13.111Z,9.33
2023-01-29T20:38:22.089Z,8.43
2023-01-29T20:41:31.125Z,8.57
2023-01-29T20:44:46.134Z,8.00
2023-01-29T20:47:49.490Z,9.30
2023-01-29T20:51:11.113Z,9.27
2023-01-29T20:54:33.330Z,8.80
2023-01-29T20:57:37.773Z,8.65
2023-01-29T21:00:52.147Z,8.65
2023-01-29T21:04:00.715Z,9.20
2023-01-29T21:07:09.184Z,9.83
2023-01-29T21:10:18.350Z,9.97
2023-01-29T21:13:27.112Z,8.52
2023-01-29T21:16:36.034Z,9.18
2023-01-29T21:19:45.136Z,9.93
2023-01-29T21:23:00.115Z,9.40
2023-01-29T21:26:04.873Z,9.40
2023-01-29T21:29:20.112Z,10.00
2023-01-29T21:32:28.092Z,8.98
2023-01-29T21:35:36.815Z,9.07
2023-01-29T21:38:46.171Z,9.50
2023-01-29T21:41:55.021Z,9.07
2023-01-29T21:45:03.151Z,9.80
2023-01-29T21:48:11.849Z,8.63
2023-01-29T21:51:26.121Z,9.57
2023-01-29T21:54:34.461Z,8.87
2023-01-29T21:57:50.137Z,8.50
2023-01-29T22:00:52.062Z,8.23
2023-01-29T22:04:07.137Z,9.70
2023-01-29T22:07:16.175Z,10.02
2023-01-29T22:10:24.764Z,9.70
2023-01-29T22:13:33.120Z,9.10
2023-01-29T22:16:41.799Z,10.07
2023-01-29T22:19:50.139Z,9.82
2023-01-29T22:22:58.790Z,9.23
2023-01-29T22:26:12.207Z,10.63
2023-01-29T22:29:27.180Z,10.60
2023-01-29T22:32:29.109Z,9.93
2023-01-29T22:35:45.179Z,9.00
2023-01-29T22:38:47.043Z,9.77
2023-01-29T22:42:02.165Z,10.70
2023-01-29T22:45:11.159Z,9.25
2023-01-29T22:48:19.787Z,14.73
2023-01-29T22:51:29.164Z,10.20
2023-01-29T22:54:44.720Z,9.15
2023-01-29T22:57:55.140Z,9.97
2023-01-29T23:01:04.421Z,9.43
2023-01-29T23:04:13.165Z,10.15
2023-01-29T23:07:28.152Z,9.70
2023-01-29T23:10:30.017Z,9.35
2023-01-29T23:13:45.203Z,10.67
2023-01-29T23:16:47.051Z,8.50
2023-01-29T23:20:02.195Z,9.60
2023-01-29T23:23:17.177Z,10.15
2023-01-29T23:26:19.164Z,10.88
2023-01-29T23:29:34.141Z,10.03
2023-01-29T23:32:36.902Z,10.55
2023-01-29T23:35:51.197Z,10.05
2023-01-29T23:38:53.012Z,10.52
2023-01-29T23:42:09.163Z,9.95
2023-01-29T23:45:18.176Z,10.40
2023-01-29T23:48:26.852Z,9.40
2023-01-29T23:51:35.229Z,10.23
2023-01-29T23:54:50.457Z,9.32
2023-01-29T23:57:59.158Z,9.63
